Aeroporto :
LOGIN :

Iscrizione | Disclaimer

   EN    FR    IT 

 










Sommario :    VFR   VFR Marginale   IFR   IFR Intensivo   IFR Molto Intensivo
Visibilità : 
Base nubi : 
>= 8 km
>= 3000ft
5 / 8 km
1000 / 3000 ft
1500m / 5 km
500 / 1000 ft
800 / 1500m
200 / 500 ft
< 800m
< 200 ft
Simboli :   Temporali  Nebbia  Neve Forte  Precipitazioni Forti  Vento > 20 kt
SIGMETs :   Varie  Temporali  Ghiacco  Turbolenza  Onda orograficha  Ceneri Vulcaniche







- Altitudine del aeroporto : 38 ft
- Codice IATA : TRE
- Carte del aeroporto


EGPU - Tiree

ULTIMO METAR :
  • 171120Z AUTO 27012KT 230V300 9999 FEW027/// 11/06 Q1018 RERA

METARs OBSOLETI :
  • 171050Z 27012KT 9999 VCSH SCT028 11/06 Q1017
  • 171020Z 27015KT 240V300 9999 SHRA SCT030 SCT049 11/05 Q1017
  • 170950Z 27011KT 9999 VCSH SCT035 SCT049 11/07 Q1017
  • 170920Z 28009KT 9999 SCT034CB 11/06 Q1016
  • 170850Z 25011KT 9999 VCSH SCT030 BKN049 10/06 Q1016

TAF TAF EGPU
Valido dal 17 a 12 ore il 17 a 18 ore UTC


171059Z 1712/1718 27012KT 9999 FEW025
PROB30
TEMPO 1712/1715 7000 SHRA
Nessun NOTAM noto per questo aeroporto.



MetMap, La meteo Aeronautica in un colpo d'occhio ! - Copyright ORBIFLY Dicembre 2007 - Disclaimer

ORBIFLY MET'MAP TEAM :

Programmazione e sviluppo : Alexandra Zaïnal
Concezione e sviluppo : Baudouin d'Aumeries
Co-Programmazione e sviluppo : Marc-Olivier Méhu
Supporto tecnico e logistico : Manuel Goepfert
Aiuto per la traduzione : Arnaldo La Scala

Contatto : metmap@orbifly.com




FONTI E CREDITI :

   NOAA